Aircraft
UPR1037 PT-IAD M 20
KBHM
Birmingham-Shuttlesworth International Airport
KGTR
Golden Triangle Regional Airport
Pilot:: Klebson
Aircraft:: Carenado M20R D-ERWO
Alternate: KTUP
Network: ivao
FLIGHT DETAILS
Distance: 92nm Duration 00h 29m
Cruise Speed: Flight Level: 6000
Validation: Validated Type Charter
Flight Fuel
ZFW: 1109
Block Fuel/Initial FOB: 146
Flight Fuel: -20
Cargo
Passengers: 5
Cargo: 0
ROUTE
ROUTE: JOEYE
REMARKS:
DATE
Date: 26-08-18
Departure Time: 2109
Cargo: 0
FLIGHT DETAILS
Crashed: No
Validator Comments: Validado por Claudenir
Flight Rating: 100
LANDING ANALYSIS
Landing wind: 271º/1 kt
Landing heading: 181º
Landing VS:: -130 ft/min
Landing IAS:: 81 kt
Landing Force G: 1.1 G
Landing Bank: 0
Landing Pitch: -3
Landing Flaps: 33
Navigation Lights: ON
Landing Lights: ON
Beacon Lights: ON
Strobe Lights: ON
viserfly

ALTITUDE CHART

viserfly

MAIN EVENTS

DATE EVENT IAS ALTITUDE
2026-08-18 21:08:12 FLYacars version 1.3.6 0 670
2026-08-18 21:08:12 Aircraft boarding in progress 0 670
2026-08-18 21:08:53 Aircraft taxiing to runway 5 670
2026-08-18 21:09:13 Detected Take-off roll, HDG 244, IAS 69kt, GS 70kt, G-force 1.0g, Pitch -5.8deg, Bank -0.1deg, Wind 270/01kt, Temp 15°C 69 671
2026-08-18 21:09:13 Airborne 69 671
2026-08-18 21:09:21 Gear UP, IAS 68kt, GS 68kt, ALT 112ft AGL 68 781
2026-08-18 21:09:42 FLAPS 0% 78kt, ALT 1045ft 78 1045
2026-08-18 21:11:47 Aircraft on Top Of Climb at 5985ft, IAS 143kt, GS 156kt, HDG 280deg, TAT 3deg, WIND 256/2kt 143 5985
2026-08-18 21:33:34 Aircraft on Top Of Descent at 5496ft, IAS 168kt, GS 182kt, HDG 353deg, TAT 4deg, WIND 270/2kt 168 5496
2026-08-18 21:37:06 Gear DOWN, IAS 151kt, GS 154kt, ALT 1433ft AGL 151 1607
2026-08-18 21:37:27 FLAPS 33% 130kt, ALT 1186ft 130 1186
2026-08-18 21:38:53 Landed at destination with a landing rate of -130fpm, G-force 1.1g, Pitch -3.2deg, Bank 0.3deg, HDG 181deg, IAS 81kt, GS 82kt, Wind 271/01kt, Temp 14°C 81 263
2026-08-18 21:39:10 Aircraft taxiing to apron 25 262
2026-08-18 21:39:23 Aircraft at gate/stand, ground services are moving into position, disembarkation has begun. Remaining FOB 166kg FLYacars v1.3.6 0 262
viserfly

ACARS DATA

DATE IAS GS ALTITUDE FUEL CONSUMED OAT FLIGHT STATUS
2026-08-18 21:08:42 0 0 670 -57 14 BOARDING
2026-08-18 21:09:12 65 66 671 -57 15 TAKEOFF
2026-08-18 21:09:42 78 78 1032 -56 14 TAKEOFF
2026-08-18 21:10:12 107 109 1450 -56 13 TAKEOFF
2026-08-18 21:10:42 157 162 2939 -53 10 INITIAL CLIMB
2026-08-18 21:11:12 153 162 4338 -51 7 CLIMB
2026-08-18 21:11:42 144 155 5724 -49 4 CLIMB
2026-08-18 21:12:12 162 175 5965 -49 3 ENROUTE
2026-08-18 21:12:42 164 178 5969 -48 4 ENROUTE
2026-08-18 21:13:12 166 180 5965 -48 4 ENROUTE
2026-08-18 21:13:42 166 180 5966 -47 3 ENROUTE
2026-08-18 21:14:12 166 180 5966 -47 3 ENROUTE
2026-08-18 21:14:42 167 181 5966 -46 4 ENROUTE
2026-08-18 21:15:12 166 180 5965 -46 3 ENROUTE
2026-08-18 21:15:42 166 180 5965 -45 4 ENROUTE
2026-08-18 21:16:12 166 180 5965 -45 4 ENROUTE
2026-08-18 21:16:42 166 180 5965 -44 4 ENROUTE
2026-08-18 21:17:12 166 180 5965 -44 4 ENROUTE
2026-08-18 21:17:42 166 180 5965 -44 4 ENROUTE
2026-08-18 21:18:12 169 183 5965 -43 4 ENROUTE
2026-08-18 21:18:42 169 183 5961 -43 4 ENROUTE
2026-08-18 21:19:12 171 186 5967 -42 4 ENROUTE
2026-08-18 21:19:42 169 183 5963 -42 4 ENROUTE
2026-08-18 21:20:12 170 184 5959 -41 4 ENROUTE
2026-08-18 21:20:42 170 185 5950 -41 4 ENROUTE
2026-08-18 21:21:12 168 183 5950 -40 4 ENROUTE
2026-08-18 21:21:42 168 182 5951 -40 4 ENROUTE
2026-08-18 21:22:12 166 180 5952 -39 4 ENROUTE
2026-08-18 21:22:42 167 181 5951 -39 4 ENROUTE
2026-08-18 21:23:12 170 184 5955 -39 3 ENROUTE
2026-08-18 21:23:42 171 185 5957 -38 3 ENROUTE
2026-08-18 21:24:12 168 182 5953 -38 4 ENROUTE
2026-08-18 21:24:42 168 182 5954 -37 3 ENROUTE
2026-08-18 21:25:12 170 184 5956 -37 3 ENROUTE
2026-08-18 21:25:42 168 182 5953 -36 3 ENROUTE
2026-08-18 21:26:12 166 180 5951 -36 3 ENROUTE
2026-08-18 21:26:42 167 181 5952 -35 4 ENROUTE
2026-08-18 21:27:12 167 181 5953 -35 3 ENROUTE
2026-08-18 21:27:42 167 181 5951 -34 3 ENROUTE
2026-08-18 21:28:12 167 181 5959 -34 3 ENROUTE
2026-08-18 21:28:42 167 181 5954 -33 3 ENROUTE
2026-08-18 21:29:12 167 181 5955 -32 3 ENROUTE
2026-08-18 21:29:42 169 183 5958 -31 3 ENROUTE
2026-08-18 21:30:12 168 182 5957 -30 3 ENROUTE
2026-08-18 21:30:42 169 183 5957 -29 3 ENROUTE
2026-08-18 21:31:12 170 184 5958 -28 3 ENROUTE
2026-08-18 21:31:42 167 181 5955 -27 3 ENROUTE
2026-08-18 21:32:12 167 181 5952 -26 3 ENROUTE
2026-08-18 21:32:42 166 182 5954 -25 3 ENROUTE
2026-08-18 21:33:12 168 184 5959 -24 3 ENROUTE
2026-08-18 21:33:42 164 178 5218 -24 5 DESCENT
2026-08-18 21:34:12 160 171 4195 -23 7 DESCENT
2026-08-18 21:34:42 165 173 3214 -23 9 DESCENT
2026-08-18 21:35:12 165 171 2224 -23 11 DESCENT
2026-08-18 21:35:42 150 155 2063 -22 11 DESCENT
2026-08-18 21:36:12 152 157 2072 -22 11 DESCENT
2026-08-18 21:36:42 150 155 2056 -21 11 DESCENT
2026-08-18 21:37:12 144 147 1493 -21 12 DESCENT
2026-08-18 21:37:42 117 118 904 -21 13 ON FINAL
2026-08-18 21:38:12 96 97 567 -21 14 ON FINAL
2026-08-18 21:38:42 86 88 313 -20 14 ON FINAL
2026-08-18 21:39:12 15 14 262 -20 14 TAXI TO APRON
  • Join our VA!

    It has been 11 years of great learning, friendships, and stories.

  • Sign up now!